sensor_id;sensor_type;location;lat;lon;timestamp;P1;durP1;ratioP1;P2;durP2;ratioP2
49758;SDS011;70329;45.524;10.194;2024-03-22T00:02:19;104.25;;;43.72;;
49758;SDS011;70329;45.524;10.194;2024-03-22T00:04:47;103.22;;;43.53;;
49758;SDS011;70329;45.524;10.194;2024-03-22T00:07:14;98.45;;;42.05;;
49758;SDS011;70329;45.524;10.194;2024-03-22T00:09:42;99.00;;;41.33;;
49758;SDS011;70329;45.524;10.194;2024-03-22T00:12:10;94.55;;;38.38;;
49758;SDS011;70329;45.524;10.194;2024-03-22T00:14:37;90.70;;;36.10;;
49758;SDS011;70329;45.524;10.194;2024-03-22T00:17:04;93.00;;;35.85;;
49758;SDS011;70329;45.524;10.194;2024-03-22T00:19:32;93.38;;;37.10;;
49758;SDS011;70329;45.524;10.194;2024-03-22T00:21:59;91.05;;;36.45;;
49758;SDS011;70329;45.524;10.194;2024-03-22T00:24:26;95.50;;;36.72;;
49758;SDS011;70329;45.524;10.194;2024-03-22T00:26:52;91.68;;;36.17;;
49758;SDS011;70329;45.524;10.194;2024-03-22T00:29:20;97.22;;;36.60;;
49758;SDS011;70329;45.524;10.194;2024-03-22T00:31:45;93.07;;;36.30;;
49758;SDS011;70329;45.524;10.194;2024-03-22T00:34:13;99.80;;;37.35;;
49758;SDS011;70329;45.524;10.194;2024-03-22T00:36:39;90.28;;;36.72;;
49758;SDS011;70329;45.524;10.194;2024-03-22T00:41:34;99.05;;;37.30;;
49758;SDS011;70329;45.524;10.194;2024-03-22T00:44:02;96.32;;;35.97;;
49758;SDS011;70329;45.524;10.194;2024-03-22T00:46:30;97.97;;;37.88;;
49758;SDS011;70329;45.524;10.194;2024-03-22T00:48:58;98.82;;;36.72;;
49758;SDS011;70329;45.524;10.194;2024-03-22T00:51:25;91.43;;;34.67;;
49758;SDS011;70329;45.524;10.194;2024-03-22T00:53:53;95.80;;;36.22;;
49758;SDS011;70329;45.524;10.194;2024-03-22T00:56:20;89.22;;;37.42;;
49758;SDS011;70329;45.524;10.194;2024-03-22T00:58:48;88.05;;;36.70;;
49758;SDS011;70329;45.524;10.194;2024-03-22T01:01:14;90.10;;;34.75;;
49758;SDS011;70329;45.524;10.194;2024-03-22T01:03:44;95.13;;;36.28;;
49758;SDS011;70329;45.524;10.194;2024-03-22T01:06:10;93.80;;;36.60;;
49758;SDS011;70329;45.524;10.194;2024-03-22T01:08:38;91.32;;;36.97;;
49758;SDS011;70329;45.524;10.194;2024-03-22T01:11:05;96.70;;;37.30;;
49758;SDS011;70329;45.524;10.194;2024-03-22T01:13:32;100.90;;;36.13;;
49758;SDS011;70329;45.524;10.194;2024-03-22T01:15:59;98.07;;;36.28;;
49758;SDS011;70329;45.524;10.194;2024-03-22T01:18:27;89.18;;;33.92;;
49758;SDS011;70329;45.524;10.194;2024-03-22T01:20:55;91.65;;;36.25;;
49758;SDS011;70329;45.524;10.194;2024-03-22T01:23:22;91.80;;;36.20;;
49758;SDS011;70329;45.524;10.194;2024-03-22T01:25:48;96.03;;;37.17;;
49758;SDS011;70329;45.524;10.194;2024-03-22T01:28:16;97.20;;;35.60;;
49758;SDS011;70329;45.524;10.194;2024-03-22T01:33:10;93.43;;;34.97;;
49758;SDS011;70329;45.524;10.194;2024-03-22T01:35:37;88.25;;;34.47;;
49758;SDS011;70329;45.524;10.194;2024-03-22T01:38:06;102.30;;;36.78;;
49758;SDS011;70329;45.524;10.194;2024-03-22T01:40:33;89.53;;;34.85;;
49758;SDS011;70329;45.524;10.194;2024-03-22T01:43:03;90.22;;;34.38;;
49758;SDS011;70329;45.524;10.194;2024-03-22T01:45:31;95.75;;;34.67;;
49758;SDS011;70329;45.524;10.194;2024-03-22T01:48:00;91.20;;;33.55;;
49758;SDS011;70329;45.524;10.194;2024-03-22T01:50:27;86.70;;;34.20;;
49758;SDS011;70329;45.524;10.194;2024-03-22T01:52:55;95.03;;;34.50;;
49758;SDS011;70329;45.524;10.194;2024-03-22T01:55:23;87.22;;;34.22;;
49758;SDS011;70329;45.524;10.194;2024-03-22T01:57:51;88.97;;;35.25;;
49758;SDS011;70329;45.524;10.194;2024-03-22T02:00:19;92.93;;;34.38;;
49758;SDS011;70329;45.524;10.194;2024-03-22T02:02:46;92.18;;;35.15;;
49758;SDS011;70329;45.524;10.194;2024-03-22T02:05:16;98.23;;;35.10;;
49758;SDS011;70329;45.524;10.194;2024-03-22T02:07:45;94.65;;;34.58;;
49758;SDS011;70329;45.524;10.194;2024-03-22T02:10:11;92.90;;;35.38;;
49758;SDS011;70329;45.524;10.194;2024-03-22T02:12:40;89.65;;;34.92;;
49758;SDS011;70329;45.524;10.194;2024-03-22T02:15:07;90.95;;;34.53;;
49758;SDS011;70329;45.524;10.194;2024-03-22T02:17:36;90.13;;;35.92;;
49758;SDS011;70329;45.524;10.194;2024-03-22T02:20:02;91.70;;;34.65;;
49758;SDS011;70329;45.524;10.194;2024-03-22T02:22:31;92.70;;;35.22;;
49758;SDS011;70329;45.524;10.194;2024-03-22T02:24:59;99.13;;;35.92;;
49758;SDS011;70329;45.524;10.194;2024-03-22T02:27:27;102.90;;;36.40;;
49758;SDS011;70329;45.524;10.194;2024-03-22T02:29:54;92.78;;;34.60;;
49758;SDS011;70329;45.524;10.194;2024-03-22T02:32:21;100.10;;;36.80;;
49758;SDS011;70329;45.524;10.194;2024-03-22T02:34:48;99.20;;;37.33;;
49758;SDS011;70329;45.524;10.194;2024-03-22T02:37:16;93.93;;;37.15;;
49758;SDS011;70329;45.524;10.194;2024-03-22T02:39:43;101.35;;;36.15;;
49758;SDS011;70329;45.524;10.194;2024-03-22T02:42:12;91.78;;;35.05;;
49758;SDS011;70329;45.524;10.194;2024-03-22T02:44:39;98.05;;;37.33;;
49758;SDS011;70329;45.524;10.194;2024-03-22T02:47:07;94.50;;;34.70;;
49758;SDS011;70329;45.524;10.194;2024-03-22T02:49:33;86.67;;;34.93;;
49758;SDS011;70329;45.524;10.194;2024-03-22T02:54:27;83.13;;;33.00;;
49758;SDS011;70329;45.524;10.194;2024-03-22T02:56:54;89.07;;;34.53;;
49758;SDS011;70329;45.524;10.194;2024-03-22T02:59:26;92.18;;;34.90;;
49758;SDS011;70329;45.524;10.194;2024-03-22T03:01:54;98.10;;;36.00;;
49758;SDS011;70329;45.524;10.194;2024-03-22T03:04:21;81.70;;;32.70;;
49758;SDS011;70329;45.524;10.194;2024-03-22T03:06:49;93.00;;;33.10;;
49758;SDS011;70329;45.524;10.194;2024-03-22T03:09:16;89.03;;;35.63;;
49758;SDS011;70329;45.524;10.194;2024-03-22T03:11:43;83.20;;;31.40;;
49758;SDS011;70329;45.524;10.194;2024-03-22T03:14:10;83.95;;;32.10;;
49758;SDS011;70329;45.524;10.194;2024-03-22T03:16:38;85.05;;;32.05;;
49758;SDS011;70329;45.524;10.194;2024-03-22T03:19:04;81.03;;;31.25;;
49758;SDS011;70329;45.524;10.194;2024-03-22T03:23:57;82.85;;;30.95;;
49758;SDS011;70329;45.524;10.194;2024-03-22T03:26:23;77.95;;;30.83;;
49758;SDS011;70329;45.524;10.194;2024-03-22T03:28:50;78.77;;;32.47;;
49758;SDS011;70329;45.524;10.194;2024-03-22T03:31:18;79.80;;;31.20;;
49758;SDS011;70329;45.524;10.194;2024-03-22T03:33:46;90.47;;;33.60;;
49758;SDS011;70329;45.524;10.194;2024-03-22T03:36:14;96.20;;;34.60;;
49758;SDS011;70329;45.524;10.194;2024-03-22T03:38:41;97.13;;;34.80;;
49758;SDS011;70329;45.524;10.194;2024-03-22T03:41:08;90.55;;;31.63;;
49758;SDS011;70329;45.524;10.194;2024-03-22T03:43:35;90.82;;;33.67;;
49758;SDS011;70329;45.524;10.194;2024-03-22T03:46:02;91.05;;;34.63;;
49758;SDS011;70329;45.524;10.194;2024-03-22T03:48:29;92.50;;;34.40;;
49758;SDS011;70329;45.524;10.194;2024-03-22T03:50:59;92.60;;;33.30;;
49758;SDS011;70329;45.524;10.194;2024-03-22T03:53:29;91.70;;;33.40;;
49758;SDS011;70329;45.524;10.194;2024-03-22T03:55:56;85.03;;;32.33;;
49758;SDS011;70329;45.524;10.194;2024-03-22T03:58:23;87.05;;;33.05;;
49758;SDS011;70329;45.524;10.194;2024-03-22T04:00:51;83.75;;;32.83;;
49758;SDS011;70329;45.524;10.194;2024-03-22T04:03:16;86.97;;;32.35;;
49758;SDS011;70329;45.524;10.194;2024-03-22T04:05:44;83.65;;;32.05;;
49758;SDS011;70329;45.524;10.194;2024-03-22T04:08:12;91.40;;;32.40;;
49758;SDS011;70329;45.524;10.194;2024-03-22T04:10:40;78.13;;;29.08;;
49758;SDS011;70329;45.524;10.194;2024-03-22T04:13:07;81.18;;;30.63;;
49758;SDS011;70329;45.524;10.194;2024-03-22T04:15:35;86.60;;;31.73;;
49758;SDS011;70329;45.524;10.194;2024-03-22T04:18:03;80.93;;;31.00;;
49758;SDS011;70329;45.524;10.194;2024-03-22T04:20:29;80.88;;;29.95;;
49758;SDS011;70329;45.524;10.194;2024-03-22T04:22:55;85.13;;;30.70;;
49758;SDS011;70329;45.524;10.194;2024-03-22T04:27:50;79.65;;;29.77;;
49758;SDS011;70329;45.524;10.194;2024-03-22T04:30:17;74.40;;;28.85;;
49758;SDS011;70329;45.524;10.194;2024-03-22T04:32:45;80.18;;;29.50;;
49758;SDS011;70329;45.524;10.194;2024-03-22T04:35:12;83.85;;;28.58;;
49758;SDS011;70329;45.524;10.194;2024-03-22T04:37:39;74.40;;;28.55;;
49758;SDS011;70329;45.524;10.194;2024-03-22T04:40:07;75.18;;;26.92;;
49758;SDS011;70329;45.524;10.194;2024-03-22T04:42:38;71.65;;;27.23;;
49758;SDS011;70329;45.524;10.194;2024-03-22T04:45:06;70.75;;;27.20;;
49758;SDS011;70329;45.524;10.194;2024-03-22T04:47:34;70.75;;;26.50;;
49758;SDS011;70329;45.524;10.194;2024-03-22T04:50:01;72.18;;;26.00;;
49758;SDS011;70329;45.524;10.194;2024-03-22T04:52:28;72.50;;;27.05;;
49758;SDS011;70329;45.524;10.194;2024-03-22T04:54:54;70.03;;;26.77;;
49758;SDS011;70329;45.524;10.194;2024-03-22T04:57:22;69.28;;;26.73;;
49758;SDS011;70329;45.524;10.194;2024-03-22T05:02:19;74.97;;;27.15;;
49758;SDS011;70329;45.524;10.194;2024-03-22T05:04:45;71.90;;;26.25;;
49758;SDS011;70329;45.524;10.194;2024-03-22T05:07:14;76.78;;;26.33;;
49758;SDS011;70329;45.524;10.194;2024-03-22T05:09:40;62.83;;;25.03;;
49758;SDS011;70329;45.524;10.194;2024-03-22T05:12:07;68.43;;;25.17;;
49758;SDS011;70329;45.524;10.194;2024-03-22T05:14:35;66.50;;;26.40;;
49758;SDS011;70329;45.524;10.194;2024-03-22T05:17:07;171.38;;;67.30;;
49758;SDS011;70329;45.524;10.194;2024-03-22T05:19:34;70.03;;;28.10;;
49758;SDS011;70329;45.524;10.194;2024-03-22T05:22:01;58.38;;;23.33;;
49758;SDS011;70329;45.524;10.194;2024-03-22T05:24:32;61.92;;;23.40;;
49758;SDS011;70329;45.524;10.194;2024-03-22T05:26:58;61.28;;;23.70;;
49758;SDS011;70329;45.524;10.194;2024-03-22T05:29:26;56.83;;;22.83;;
49758;SDS011;70329;45.524;10.194;2024-03-22T05:31:52;60.28;;;22.20;;
49758;SDS011;70329;45.524;10.194;2024-03-22T05:34:21;61.00;;;23.15;;
49758;SDS011;70329;45.524;10.194;2024-03-22T05:36:47;64.90;;;22.45;;
49758;SDS011;70329;45.524;10.194;2024-03-22T05:39:18;56.88;;;21.67;;
49758;SDS011;70329;45.524;10.194;2024-03-22T05:41:45;61.72;;;21.45;;
49758;SDS011;70329;45.524;10.194;2024-03-22T05:44:15;54.58;;;20.13;;
49758;SDS011;70329;45.524;10.194;2024-03-22T05:49:09;58.08;;;20.23;;
49758;SDS011;70329;45.524;10.194;2024-03-22T05:51:36;50.75;;;20.55;;
49758;SDS011;70329;45.524;10.194;2024-03-22T05:54:04;51.75;;;20.75;;
49758;SDS011;70329;45.524;10.194;2024-03-22T05:56:31;53.67;;;20.05;;
49758;SDS011;70329;45.524;10.194;2024-03-22T05:58:59;48.40;;;19.08;;
49758;SDS011;70329;45.524;10.194;2024-03-22T06:01:25;52.03;;;19.95;;
49758;SDS011;70329;45.524;10.194;2024-03-22T06:06:19;42.97;;;17.33;;
49758;SDS011;70329;45.524;10.194;2024-03-22T06:08:52;46.42;;;18.27;;
49758;SDS011;70329;45.524;10.194;2024-03-22T06:11:20;43.90;;;17.20;;
49758;SDS011;70329;45.524;10.194;2024-03-22T06:13:47;49.05;;;17.27;;
49758;SDS011;70329;45.524;10.194;2024-03-22T06:16:14;46.97;;;17.20;;
49758;SDS011;70329;45.524;10.194;2024-03-22T06:18:42;51.65;;;18.45;;
49758;SDS011;70329;45.524;10.194;2024-03-22T06:23:35;45.40;;;16.52;;
49758;SDS011;70329;45.524;10.194;2024-03-22T06:26:03;43.20;;;16.70;;
49758;SDS011;70329;45.524;10.194;2024-03-22T06:28:32;45.70;;;17.00;;
49758;SDS011;70329;45.524;10.194;2024-03-22T06:30:59;44.10;;;16.60;;
49758;SDS011;70329;45.524;10.194;2024-03-22T06:33:27;48.60;;;17.23;;
49758;SDS011;70329;45.524;10.194;2024-03-22T06:35:54;46.92;;;17.00;;
49758;SDS011;70329;45.524;10.194;2024-03-22T06:38:20;41.00;;;15.77;;
49758;SDS011;70329;45.524;10.194;2024-03-22T06:40:47;38.67;;;16.53;;
49758;SDS011;70329;45.524;10.194;2024-03-22T06:43:16;40.67;;;16.90;;
49758;SDS011;70329;45.524;10.194;2024-03-22T06:45:42;48.20;;;16.88;;
49758;SDS011;70329;45.524;10.194;2024-03-22T06:50:36;38.13;;;15.70;;
49758;SDS011;70329;45.524;10.194;2024-03-22T06:53:04;40.63;;;15.85;;
49758;SDS011;70329;45.524;10.194;2024-03-22T06:55:31;40.00;;;16.15;;
49758;SDS011;70329;45.524;10.194;2024-03-22T06:57:59;38.33;;;16.55;;
49758;SDS011;70329;45.524;10.194;2024-03-22T07:02:55;38.63;;;15.60;;
49758;SDS011;70329;45.524;10.194;2024-03-22T07:05:22;53.03;;;18.27;;
49758;SDS011;70329;45.524;10.194;2024-03-22T07:07:50;43.28;;;16.92;;
49758;SDS011;70329;45.524;10.194;2024-03-22T07:10:17;48.90;;;18.25;;
49758;SDS011;70329;45.524;10.194;2024-03-22T07:12:44;44.72;;;16.77;;
49758;SDS011;70329;45.524;10.194;2024-03-22T07:17:40;45.55;;;17.13;;
49758;SDS011;70329;45.524;10.194;2024-03-22T07:20:07;46.08;;;18.63;;
49758;SDS011;70329;45.524;10.194;2024-03-22T07:22:36;51.28;;;19.50;;
49758;SDS011;70329;45.524;10.194;2024-03-22T07:25:03;47.97;;;18.48;;
49758;SDS011;70329;45.524;10.194;2024-03-22T07:27:32;43.75;;;18.10;;
49758;SDS011;70329;45.524;10.194;2024-03-22T07:29:58;49.95;;;19.05;;
49758;SDS011;70329;45.524;10.194;2024-03-22T07:32:27;51.75;;;20.58;;
49758;SDS011;70329;45.524;10.194;2024-03-22T07:34:55;46.30;;;20.25;;
49758;SDS011;70329;45.524;10.194;2024-03-22T07:37:23;48.85;;;20.02;;
49758;SDS011;70329;45.524;10.194;2024-03-22T07:39:50;48.30;;;18.90;;
49758;SDS011;70329;45.524;10.194;2024-03-22T07:42:18;64.95;;;25.45;;
49758;SDS011;70329;45.524;10.194;2024-03-22T07:44:44;59.50;;;22.88;;
49758;SDS011;70329;45.524;10.194;2024-03-22T07:47:12;59.47;;;24.70;;
49758;SDS011;70329;45.524;10.194;2024-03-22T07:49:39;66.05;;;25.65;;
49758;SDS011;70329;45.524;10.194;2024-03-22T07:52:08;70.38;;;27.23;;
49758;SDS011;70329;45.524;10.194;2024-03-22T07:54:35;78.07;;;30.50;;
49758;SDS011;70329;45.524;10.194;2024-03-22T07:57:03;69.80;;;29.05;;
49758;SDS011;70329;45.524;10.194;2024-03-22T07:59:30;75.63;;;29.55;;
49758;SDS011;70329;45.524;10.194;2024-03-22T08:01:58;69.88;;;28.50;;
49758;SDS011;70329;45.524;10.194;2024-03-22T08:04:24;66.80;;;26.38;;
49758;SDS011;70329;45.524;10.194;2024-03-22T08:06:52;69.25;;;26.75;;
49758;SDS011;70329;45.524;10.194;2024-03-22T08:09:20;64.45;;;26.92;;
49758;SDS011;70329;45.524;10.194;2024-03-22T08:11:48;66.90;;;27.02;;
49758;SDS011;70329;45.524;10.194;2024-03-22T08:14:15;65.97;;;27.40;;
49758;SDS011;70329;45.524;10.194;2024-03-22T08:16:43;68.90;;;27.73;;
49758;SDS011;70329;45.524;10.194;2024-03-22T08:19:09;68.38;;;28.73;;
49758;SDS011;70329;45.524;10.194;2024-03-22T08:21:35;68.78;;;28.20;;
49758;SDS011;70329;45.524;10.194;2024-03-22T08:24:01;65.32;;;27.15;;
49758;SDS011;70329;45.524;10.194;2024-03-22T08:26:29;72.70;;;29.52;;
49758;SDS011;70329;45.524;10.194;2024-03-22T08:28:55;70.78;;;29.45;;
49758;SDS011;70329;45.524;10.194;2024-03-22T08:33:50;65.75;;;27.05;;
49758;SDS011;70329;45.524;10.194;2024-03-22T08:38:42;77.57;;;29.48;;
49758;SDS011;70329;45.524;10.194;2024-03-22T08:41:09;79.25;;;31.48;;
49758;SDS011;70329;45.524;10.194;2024-03-22T08:43:36;74.18;;;30.75;;
49758;SDS011;70329;45.524;10.194;2024-03-22T08:46:03;73.47;;;30.10;;
49758;SDS011;70329;45.524;10.194;2024-03-22T08:48:29;72.78;;;30.30;;
49758;SDS011;70329;45.524;10.194;2024-03-22T08:50:55;79.25;;;31.48;;
49758;SDS011;70329;45.524;10.194;2024-03-22T08:53:21;77.03;;;31.47;;
49758;SDS011;70329;45.524;10.194;2024-03-22T08:55:48;77.57;;;32.47;;
49758;SDS011;70329;45.524;10.194;2024-03-22T08:58:14;76.75;;;33.28;;
49758;SDS011;70329;45.524;10.194;2024-03-22T09:00:43;89.82;;;34.50;;
49758;SDS011;70329;45.524;10.194;2024-03-22T09:03:09;89.15;;;34.88;;
49758;SDS011;70329;45.524;10.194;2024-03-22T09:05:36;83.75;;;34.70;;
49758;SDS011;70329;45.524;10.194;2024-03-22T09:08:02;85.82;;;36.22;;
49758;SDS011;70329;45.524;10.194;2024-03-22T09:10:29;90.00;;;36.58;;
49758;SDS011;70329;45.524;10.194;2024-03-22T09:12:56;88.38;;;35.92;;
49758;SDS011;70329;45.524;10.194;2024-03-22T09:15:23;83.72;;;34.53;;
49758;SDS011;70329;45.524;10.194;2024-03-22T09:17:51;79.63;;;33.83;;
49758;SDS011;70329;45.524;10.194;2024-03-22T09:20:18;72.03;;;30.50;;
49758;SDS011;70329;45.524;10.194;2024-03-22T09:22:43;72.82;;;30.95;;
49758;SDS011;70329;45.524;10.194;2024-03-22T09:25:10;80.57;;;33.45;;
49758;SDS011;70329;45.524;10.194;2024-03-22T09:27:35;72.57;;;30.30;;
49758;SDS011;70329;45.524;10.194;2024-03-22T09:30:02;72.32;;;29.90;;
49758;SDS011;70329;45.524;10.194;2024-03-22T09:32:29;77.03;;;30.55;;
49758;SDS011;70329;45.524;10.194;2024-03-22T09:34:58;67.55;;;27.65;;
49758;SDS011;70329;45.524;10.194;2024-03-22T09:37:23;62.05;;;26.50;;
49758;SDS011;70329;45.524;10.194;2024-03-22T09:39:50;61.65;;;26.65;;
49758;SDS011;70329;45.524;10.194;2024-03-22T09:42:16;55.10;;;24.40;;
49758;SDS011;70329;45.524;10.194;2024-03-22T09:44:44;54.15;;;24.70;;
49758;SDS011;70329;45.524;10.194;2024-03-22T09:47:13;59.85;;;25.02;;
49758;SDS011;70329;45.524;10.194;2024-03-22T09:49:41;50.00;;;23.42;;
49758;SDS011;70329;45.524;10.194;2024-03-22T09:52:13;57.38;;;25.30;;
49758;SDS011;70329;45.524;10.194;2024-03-22T09:54:41;55.95;;;24.58;;
49758;SDS011;70329;45.524;10.194;2024-03-22T09:57:07;56.22;;;25.58;;
49758;SDS011;70329;45.524;10.194;2024-03-22T09:59:37;55.92;;;25.30;;
49758;SDS011;70329;45.524;10.194;2024-03-22T10:02:03;53.70;;;24.63;;
49758;SDS011;70329;45.524;10.194;2024-03-22T10:04:30;49.65;;;22.75;;
49758;SDS011;70329;45.524;10.194;2024-03-22T10:06:55;46.42;;;21.65;;
49758;SDS011;70329;45.524;10.194;2024-03-22T10:09:29;48.20;;;22.15;;
49758;SDS011;70329;45.524;10.194;2024-03-22T10:11:55;57.50;;;24.40;;
49758;SDS011;70329;45.524;10.194;2024-03-22T10:14:21;46.85;;;20.65;;
49758;SDS011;70329;45.524;10.194;2024-03-22T10:16:50;47.90;;;21.35;;
49758;SDS011;70329;45.524;10.194;2024-03-22T10:19:18;40.97;;;19.67;;
49758;SDS011;70329;45.524;10.194;2024-03-22T10:21:44;38.65;;;17.90;;
49758;SDS011;70329;45.524;10.194;2024-03-22T10:24:10;45.33;;;20.15;;
49758;SDS011;70329;45.524;10.194;2024-03-22T10:26:37;40.58;;;19.33;;
49758;SDS011;70329;45.524;10.194;2024-03-22T10:29:05;40.40;;;17.83;;
49758;SDS011;70329;45.524;10.194;2024-03-22T10:31:31;35.65;;;15.15;;
49758;SDS011;70329;45.524;10.194;2024-03-22T10:33:58;29.95;;;14.15;;
49758;SDS011;70329;45.524;10.194;2024-03-22T10:36:24;34.25;;;16.05;;
49758;SDS011;70329;45.524;10.194;2024-03-22T10:38:52;36.00;;;16.50;;
49758;SDS011;70329;45.524;10.194;2024-03-22T10:41:19;34.67;;;15.77;;
49758;SDS011;70329;45.524;10.194;2024-03-22T10:43:47;24.08;;;11.60;;
49758;SDS011;70329;45.524;10.194;2024-03-22T10:46:13;25.23;;;11.88;;
49758;SDS011;70329;45.524;10.194;2024-03-22T10:48:40;24.70;;;11.20;;
49758;SDS011;70329;45.524;10.194;2024-03-22T10:51:07;22.52;;;11.40;;
49758;SDS011;70329;45.524;10.194;2024-03-22T10:53:34;25.50;;;12.18;;
49758;SDS011;70329;45.524;10.194;2024-03-22T10:56:01;24.02;;;12.60;;
49758;SDS011;70329;45.524;10.194;2024-03-22T10:58:31;26.55;;;12.85;;
49758;SDS011;70329;45.524;10.194;2024-03-22T11:00:58;31.67;;;13.23;;
49758;SDS011;70329;45.524;10.194;2024-03-22T11:03:25;26.98;;;12.40;;
49758;SDS011;70329;45.524;10.194;2024-03-22T11:05:53;24.70;;;11.52;;
49758;SDS011;70329;45.524;10.194;2024-03-22T11:08:24;22.15;;;10.10;;
49758;SDS011;70329;45.524;10.194;2024-03-22T11:10:51;20.77;;;9.55;;
49758;SDS011;70329;45.524;10.194;2024-03-22T11:13:17;22.33;;;11.25;;
49758;SDS011;70329;45.524;10.194;2024-03-22T11:15:43;27.67;;;12.65;;
49758;SDS011;70329;45.524;10.194;2024-03-22T11:18:11;24.17;;;11.18;;
49758;SDS011;70329;45.524;10.194;2024-03-22T11:20:37;20.98;;;10.77;;
49758;SDS011;70329;45.524;10.194;2024-03-22T11:23:03;21.45;;;9.98;;
49758;SDS011;70329;45.524;10.194;2024-03-22T11:25:31;28.20;;;11.80;;
49758;SDS011;70329;45.524;10.194;2024-03-22T11:27:57;20.70;;;9.75;;
49758;SDS011;70329;45.524;10.194;2024-03-22T11:30:23;19.58;;;9.57;;
49758;SDS011;70329;45.524;10.194;2024-03-22T11:32:50;19.10;;;9.70;;
49758;SDS011;70329;45.524;10.194;2024-03-22T11:35:17;24.38;;;10.65;;
49758;SDS011;70329;45.524;10.194;2024-03-22T11:37:44;21.25;;;10.23;;
49758;SDS011;70329;45.524;10.194;2024-03-22T11:40:10;14.18;;;7.25;;
49758;SDS011;70329;45.524;10.194;2024-03-22T11:42:37;10.48;;;4.55;;
49758;SDS011;70329;45.524;10.194;2024-03-22T11:45:05;8.75;;;4.65;;
49758;SDS011;70329;45.524;10.194;2024-03-22T11:47:34;9.95;;;5.50;;
49758;SDS011;70329;45.524;10.194;2024-03-22T11:50:01;14.73;;;8.02;;
49758;SDS011;70329;45.524;10.194;2024-03-22T11:52:29;14.07;;;7.00;;
49758;SDS011;70329;45.524;10.194;2024-03-22T11:54:55;17.95;;;8.45;;
49758;SDS011;70329;45.524;10.194;2024-03-22T11:57:22;18.08;;;9.13;;
49758;SDS011;70329;45.524;10.194;2024-03-22T12:02:14;19.05;;;9.32;;
49758;SDS011;70329;45.524;10.194;2024-03-22T12:04:40;19.38;;;9.32;;
49758;SDS011;70329;45.524;10.194;2024-03-22T12:07:09;18.45;;;8.07;;
49758;SDS011;70329;45.524;10.194;2024-03-22T12:09:37;17.50;;;8.13;;
49758;SDS011;70329;45.524;10.194;2024-03-22T12:12:04;17.55;;;9.20;;
49758;SDS011;70329;45.524;10.194;2024-03-22T12:14:31;15.68;;;8.32;;
49758;SDS011;70329;45.524;10.194;2024-03-22T12:16:57;20.38;;;9.95;;
49758;SDS011;70329;45.524;10.194;2024-03-22T12:19:24;16.75;;;9.10;;
49758;SDS011;70329;45.524;10.194;2024-03-22T12:21:50;17.83;;;7.75;;
49758;SDS011;70329;45.524;10.194;2024-03-22T12:24:16;16.98;;;6.72;;
49758;SDS011;70329;45.524;10.194;2024-03-22T12:26:44;13.40;;;6.95;;
49758;SDS011;70329;45.524;10.194;2024-03-22T12:29:10;14.85;;;8.05;;
49758;SDS011;70329;45.524;10.194;2024-03-22T12:31:38;19.45;;;9.30;;
49758;SDS011;70329;45.524;10.194;2024-03-22T12:34:04;19.58;;;9.15;;
49758;SDS011;70329;45.524;10.194;2024-03-22T12:36:30;20.63;;;10.18;;
49758;SDS011;70329;45.524;10.194;2024-03-22T12:38:56;22.33;;;10.68;;
49758;SDS011;70329;45.524;10.194;2024-03-22T12:41:23;23.15;;;11.00;;
49758;SDS011;70329;45.524;10.194;2024-03-22T12:43:50;25.90;;;12.20;;
49758;SDS011;70329;45.524;10.194;2024-03-22T12:46:16;26.55;;;12.57;;
49758;SDS011;70329;45.524;10.194;2024-03-22T12:48:42;26.15;;;12.23;;
49758;SDS011;70329;45.524;10.194;2024-03-22T12:51:09;23.25;;;11.73;;
49758;SDS011;70329;45.524;10.194;2024-03-22T12:53:34;27.00;;;12.57;;
49758;SDS011;70329;45.524;10.194;2024-03-22T12:56:01;23.70;;;12.10;;
49758;SDS011;70329;45.524;10.194;2024-03-22T12:58:29;22.13;;;11.85;;
49758;SDS011;70329;45.524;10.194;2024-03-22T13:00:57;25.85;;;12.52;;
49758;SDS011;70329;45.524;10.194;2024-03-22T13:03:25;25.17;;;11.93;;
49758;SDS011;70329;45.524;10.194;2024-03-22T13:05:51;23.25;;;10.13;;
49758;SDS011;70329;45.524;10.194;2024-03-22T13:08:17;26.50;;;11.95;;
49758;SDS011;70329;45.524;10.194;2024-03-22T13:10:44;24.75;;;11.63;;
49758;SDS011;70329;45.524;10.194;2024-03-22T13:13:09;18.75;;;9.52;;
49758;SDS011;70329;45.524;10.194;2024-03-22T13:15:36;19.25;;;9.05;;
49758;SDS011;70329;45.524;10.194;2024-03-22T13:20:30;25.33;;;11.25;;
49758;SDS011;70329;45.524;10.194;2024-03-22T13:22:56;30.05;;;13.90;;
49758;SDS011;70329;45.524;10.194;2024-03-22T13:25:24;25.17;;;13.05;;
49758;SDS011;70329;45.524;10.194;2024-03-22T13:27:49;28.08;;;13.15;;
49758;SDS011;70329;45.524;10.194;2024-03-22T13:30:17;27.83;;;13.82;;
49758;SDS011;70329;45.524;10.194;2024-03-22T13:32:43;24.90;;;13.13;;
49758;SDS011;70329;45.524;10.194;2024-03-22T13:35:19;26.75;;;13.50;;
49758;SDS011;70329;45.524;10.194;2024-03-22T13:37:45;27.92;;;12.35;;
49758;SDS011;70329;45.524;10.194;2024-03-22T13:40:13;27.23;;;13.85;;
49758;SDS011;70329;45.524;10.194;2024-03-22T13:42:43;27.02;;;13.18;;
49758;SDS011;70329;45.524;10.194;2024-03-22T13:45:10;29.05;;;14.70;;
49758;SDS011;70329;45.524;10.194;2024-03-22T13:47:37;26.10;;;14.10;;
49758;SDS011;70329;45.524;10.194;2024-03-22T13:50:07;31.88;;;15.07;;
49758;SDS011;70329;45.524;10.194;2024-03-22T13:52:36;27.80;;;14.00;;
49758;SDS011;70329;45.524;10.194;2024-03-22T13:55:04;27.98;;;13.68;;
49758;SDS011;70329;45.524;10.194;2024-03-22T13:57:31;30.85;;;14.38;;
49758;SDS011;70329;45.524;10.194;2024-03-22T13:59:58;25.73;;;13.05;;
49758;SDS011;70329;45.524;10.194;2024-03-22T14:02:24;25.85;;;12.73;;
49758;SDS011;70329;45.524;10.194;2024-03-22T14:04:52;26.45;;;13.60;;
49758;SDS011;70329;45.524;10.194;2024-03-22T14:07:18;26.63;;;13.40;;
49758;SDS011;70329;45.524;10.194;2024-03-22T14:09:46;24.92;;;13.18;;
49758;SDS011;70329;45.524;10.194;2024-03-22T14:12:12;27.85;;;13.35;;
49758;SDS011;70329;45.524;10.194;2024-03-22T14:14:40;27.05;;;14.05;;
49758;SDS011;70329;45.524;10.194;2024-03-22T14:17:07;24.30;;;11.93;;
49758;SDS011;70329;45.524;10.194;2024-03-22T14:19:35;24.52;;;11.75;;
49758;SDS011;70329;45.524;10.194;2024-03-22T14:22:02;27.38;;;13.32;;
49758;SDS011;70329;45.524;10.194;2024-03-22T14:24:29;25.73;;;12.85;;
49758;SDS011;70329;45.524;10.194;2024-03-22T14:26:57;28.38;;;14.40;;
49758;SDS011;70329;45.524;10.194;2024-03-22T14:29:22;28.35;;;15.00;;
49758;SDS011;70329;45.524;10.194;2024-03-22T14:31:49;24.63;;;12.45;;
49758;SDS011;70329;45.524;10.194;2024-03-22T14:34:16;22.17;;;10.88;;
49758;SDS011;70329;45.524;10.194;2024-03-22T14:36:44;18.70;;;10.18;;
49758;SDS011;70329;45.524;10.194;2024-03-22T14:39:11;17.98;;;9.43;;
49758;SDS011;70329;45.524;10.194;2024-03-22T14:41:40;21.80;;;9.20;;
49758;SDS011;70329;45.524;10.194;2024-03-22T14:44:07;25.20;;;11.05;;
49758;SDS011;70329;45.524;10.194;2024-03-22T14:46:36;24.05;;;11.20;;
49758;SDS011;70329;45.524;10.194;2024-03-22T14:49:02;19.88;;;10.70;;